sensor_id;sensor_type;location;lat;lon;timestamp;P1;durP1;ratioP1;P2;durP2;ratioP2
16757;SDS011;8497;51.346;12.396;2024-02-26T18:04:51;19.40;;;12.20;;
16757;SDS011;8497;51.346;12.396;2024-02-26T18:07:20;19.03;;;11.47;;
16757;SDS011;8497;51.346;12.396;2024-02-26T18:09:50;18.67;;;11.63;;
16757;SDS011;8497;51.346;12.396;2024-02-26T18:12:21;18.13;;;12.27;;
16757;SDS011;8497;51.346;12.396;2024-02-26T18:14:58;14.63;;;11.07;;
16757;SDS011;8497;51.346;12.396;2024-02-26T18:17:30;14.43;;;11.00;;
16757;SDS011;8497;51.346;12.396;2024-02-26T18:20:03;16.20;;;11.10;;
16757;SDS011;8497;51.346;12.396;2024-02-26T18:22:34;17.17;;;11.43;;
16757;SDS011;8497;51.346;12.396;2024-02-26T18:25:06;17.70;;;10.63;;
16757;SDS011;8497;51.346;12.396;2024-02-26T18:27:36;20.40;;;11.63;;
16757;SDS011;8497;51.346;12.396;2024-02-26T18:30:07;16.47;;;11.47;;
16757;SDS011;8497;51.346;12.396;2024-02-26T18:32:36;16.17;;;11.73;;
16757;SDS011;8497;51.346;12.396;2024-02-26T18:35:08;16.80;;;10.83;;
16757;SDS011;8497;51.346;12.396;2024-02-26T18:37:37;15.83;;;10.70;;
16757;SDS011;8497;51.346;12.396;2024-02-26T18:40:09;14.77;;;10.83;;
16757;SDS011;8497;51.346;12.396;2024-02-26T18:42:38;15.27;;;11.03;;
16757;SDS011;8497;51.346;12.396;2024-02-26T18:45:07;13.37;;;10.20;;
16757;SDS011;8497;51.346;12.396;2024-02-26T18:47:38;14.13;;;10.23;;
16757;SDS011;8497;51.346;12.396;2024-02-26T18:50:09;14.80;;;9.93;;
16757;SDS011;8497;51.346;12.396;2024-02-26T18:52:38;14.03;;;10.03;;
16757;SDS011;8497;51.346;12.396;2024-02-26T18:55:15;14.83;;;10.40;;
16757;SDS011;8497;51.346;12.396;2024-02-26T18:57:49;12.20;;;9.70;;
16757;SDS011;8497;51.346;12.396;2024-02-26T19:00:20;15.50;;;9.77;;
16757;SDS011;8497;51.346;12.396;2024-02-26T19:02:48;12.07;;;10.17;;
16757;SDS011;8497;51.346;12.396;2024-02-26T19:05:21;13.97;;;9.10;;
16757;SDS011;8497;51.346;12.396;2024-02-26T19:07:52;14.37;;;9.97;;
16757;SDS011;8497;51.346;12.396;2024-02-26T19:10:25;12.60;;;9.07;;
16757;SDS011;8497;51.346;12.396;2024-02-26T19:12:53;13.73;;;9.63;;
16757;SDS011;8497;51.346;12.396;2024-02-26T19:15:25;17.37;;;9.90;;
16757;SDS011;8497;51.346;12.396;2024-02-26T19:17:54;14.53;;;9.63;;
16757;SDS011;8497;51.346;12.396;2024-02-26T19:20:25;13.07;;;9.90;;
16757;SDS011;8497;51.346;12.396;2024-02-26T19:22:55;14.17;;;10.60;;
16757;SDS011;8497;51.346;12.396;2024-02-26T19:25:26;12.07;;;9.30;;
16757;SDS011;8497;51.346;12.396;2024-02-26T19:27:55;14.53;;;10.40;;
16757;SDS011;8497;51.346;12.396;2024-02-26T19:30:23;15.70;;;9.90;;
16757;SDS011;8497;51.346;12.396;2024-02-26T19:32:52;13.80;;;10.07;;
16757;SDS011;8497;51.346;12.396;2024-02-26T19:35:21;16.47;;;10.90;;
16757;SDS011;8497;51.346;12.396;2024-02-26T19:37:51;15.57;;;11.27;;
16757;SDS011;8497;51.346;12.396;2024-02-26T19:40:25;15.47;;;11.03;;
16757;SDS011;8497;51.346;12.396;2024-02-26T19:42:54;15.40;;;10.93;;
16757;SDS011;8497;51.346;12.396;2024-02-26T19:45:23;19.60;;;11.93;;
16757;SDS011;8497;51.346;12.396;2024-02-26T19:47:51;16.97;;;10.83;;
16757;SDS011;8497;51.346;12.396;2024-02-26T19:50:20;17.97;;;12.03;;
16757;SDS011;8497;51.346;12.396;2024-02-26T19:52:52;15.47;;;10.90;;
16757;SDS011;8497;51.346;12.396;2024-02-26T19:55:21;15.57;;;11.20;;
16757;SDS011;8497;51.346;12.396;2024-02-26T19:57:50;16.90;;;11.53;;
16757;SDS011;8497;51.346;12.396;2024-02-26T20:00:24;16.50;;;11.17;;
16757;SDS011;8497;51.346;12.396;2024-02-26T20:02:54;15.60;;;11.83;;
16757;SDS011;8497;51.346;12.396;2024-02-26T20:05:23;18.30;;;12.93;;
16757;SDS011;8497;51.346;12.396;2024-02-26T20:07:53;15.87;;;12.43;;
16757;SDS011;8497;51.346;12.396;2024-02-26T20:10:22;16.67;;;12.77;;
16757;SDS011;8497;51.346;12.396;2024-02-26T20:12:54;18.00;;;13.07;;
16757;SDS011;8497;51.346;12.396;2024-02-26T20:15:32;19.77;;;13.47;;
16757;SDS011;8497;51.346;12.396;2024-02-26T20:18:01;22.50;;;13.30;;
16757;SDS011;8497;51.346;12.396;2024-02-26T20:20:34;17.67;;;12.23;;
16757;SDS011;8497;51.346;12.396;2024-02-26T20:23:04;18.00;;;13.37;;
16757;SDS011;8497;51.346;12.396;2024-02-26T20:25:33;19.23;;;13.47;;
16757;SDS011;8497;51.346;12.396;2024-02-26T20:28:03;24.30;;;15.17;;
16757;SDS011;8497;51.346;12.396;2024-02-26T20:30:32;21.57;;;15.13;;
16757;SDS011;8497;51.346;12.396;2024-02-26T20:33:01;18.70;;;13.83;;
16757;SDS011;8497;51.346;12.396;2024-02-26T20:35:31;25.80;;;15.07;;
16757;SDS011;8497;51.346;12.396;2024-02-26T20:38:00;19.90;;;14.17;;
16757;SDS011;8497;51.346;12.396;2024-02-26T20:40:29;22.80;;;15.77;;
16757;SDS011;8497;51.346;12.396;2024-02-26T20:42:59;22.27;;;15.43;;
16757;SDS011;8497;51.346;12.396;2024-02-26T20:45:28;24.07;;;16.27;;
16757;SDS011;8497;51.346;12.396;2024-02-26T20:47:56;23.10;;;16.10;;
16757;SDS011;8497;51.346;12.396;2024-02-26T20:50:25;22.07;;;15.63;;
16757;SDS011;8497;51.346;12.396;2024-02-26T20:52:54;22.90;;;16.63;;
16757;SDS011;8497;51.346;12.396;2024-02-26T20:55:23;23.57;;;15.93;;
16757;SDS011;8497;51.346;12.396;2024-02-26T20:57:55;29.40;;;17.13;;
16757;SDS011;8497;51.346;12.396;2024-02-26T21:00:25;24.30;;;15.53;;
16757;SDS011;8497;51.346;12.396;2024-02-26T21:02:54;23.57;;;14.73;;
16757;SDS011;8497;51.346;12.396;2024-02-26T21:05:23;25.70;;;16.03;;
16757;SDS011;8497;51.346;12.396;2024-02-26T21:07:52;25.87;;;16.63;;
16757;SDS011;8497;51.346;12.396;2024-02-26T21:10:20;24.30;;;16.10;;
16757;SDS011;8497;51.346;12.396;2024-02-26T21:13:01;21.13;;;15.30;;
16757;SDS011;8497;51.346;12.396;2024-02-26T21:15:32;26.37;;;16.73;;
16757;SDS011;8497;51.346;12.396;2024-02-26T21:18:03;25.47;;;17.30;;
16757;SDS011;8497;51.346;12.396;2024-02-26T21:20:38;21.13;;;16.50;;
16757;SDS011;8497;51.346;12.396;2024-02-26T21:23:13;24.90;;;17.40;;
16757;SDS011;8497;51.346;12.396;2024-02-26T21:25:44;25.20;;;16.50;;
16757;SDS011;8497;51.346;12.396;2024-02-26T21:28:17;28.90;;;17.90;;
16757;SDS011;8497;51.346;12.396;2024-02-26T21:30:48;25.23;;;16.77;;
16757;SDS011;8497;51.346;12.396;2024-02-26T21:33:26;22.33;;;15.80;;
16757;SDS011;8497;51.346;12.396;2024-02-26T21:35:55;25.43;;;16.47;;
16757;SDS011;8497;51.346;12.396;2024-02-26T21:38:28;27.00;;;17.37;;
16757;SDS011;8497;51.346;12.396;2024-02-26T21:41:11;24.57;;;17.20;;
16757;SDS011;8497;51.346;12.396;2024-02-26T21:43:46;24.63;;;17.00;;
16757;SDS011;8497;51.346;12.396;2024-02-26T21:46:17;23.33;;;16.40;;
16757;SDS011;8497;51.346;12.396;2024-02-26T21:48:51;27.73;;;17.20;;
16757;SDS011;8497;51.346;12.396;2024-02-26T21:51:21;25.80;;;18.00;;
16757;SDS011;8497;51.346;12.396;2024-02-26T21:53:52;26.77;;;17.37;;
16757;SDS011;8497;51.346;12.396;2024-02-26T21:56:23;23.93;;;16.87;;
16757;SDS011;8497;51.346;12.396;2024-02-26T21:58:55;24.60;;;17.23;;
16757;SDS011;8497;51.346;12.396;2024-02-26T22:01:27;24.37;;;17.07;;
16757;SDS011;8497;51.346;12.396;2024-02-26T22:03:59;21.97;;;16.13;;
16757;SDS011;8497;51.346;12.396;2024-02-26T22:06:30;27.57;;;17.90;;
16757;SDS011;8497;51.346;12.396;2024-02-26T22:09:05;23.50;;;16.87;;
16757;SDS011;8497;51.346;12.396;2024-02-26T22:11:35;30.83;;;17.80;;
16757;SDS011;8497;51.346;12.396;2024-02-26T22:14:05;26.53;;;17.77;;
16757;SDS011;8497;51.346;12.396;2024-02-26T22:16:34;27.60;;;17.60;;
16757;SDS011;8497;51.346;12.396;2024-02-26T22:19:06;26.60;;;17.00;;
16757;SDS011;8497;51.346;12.396;2024-02-26T22:21:39;23.90;;;17.03;;
16757;SDS011;8497;51.346;12.396;2024-02-26T22:24:09;26.40;;;17.03;;
16757;SDS011;8497;51.346;12.396;2024-02-26T22:26:38;27.03;;;17.57;;
16757;SDS011;8497;51.346;12.396;2024-02-26T22:29:08;25.37;;;17.57;;
16757;SDS011;8497;51.346;12.396;2024-02-26T22:31:38;28.80;;;17.67;;
16757;SDS011;8497;51.346;12.396;2024-02-26T22:34:08;27.03;;;17.30;;
16757;SDS011;8497;51.346;12.396;2024-02-26T22:36:38;24.77;;;17.30;;
16757;SDS011;8497;51.346;12.396;2024-02-26T22:39:07;26.20;;;17.67;;
16757;SDS011;8497;51.346;12.396;2024-02-26T22:41:39;26.10;;;16.87;;
16757;SDS011;8497;51.346;12.396;2024-02-26T22:44:11;26.60;;;18.13;;
16757;SDS011;8497;51.346;12.396;2024-02-26T22:46:40;27.70;;;17.83;;
16757;SDS011;8497;51.346;12.396;2024-02-26T22:49:08;30.97;;;18.30;;
16757;SDS011;8497;51.346;12.396;2024-02-26T22:51:37;26.63;;;17.83;;
16757;SDS011;8497;51.346;12.396;2024-02-26T22:54:06;27.67;;;17.73;;
16757;SDS011;8497;51.346;12.396;2024-02-26T22:56:39;28.57;;;16.63;;
16757;SDS011;8497;51.346;12.396;2024-02-26T22:59:09;25.43;;;16.30;;
16757;SDS011;8497;51.346;12.396;2024-02-26T23:01:48;26.27;;;17.13;;
16757;SDS011;8497;51.346;12.396;2024-02-26T23:04:19;25.37;;;16.37;;
16757;SDS011;8497;51.346;12.396;2024-02-26T23:06:49;28.10;;;16.80;;
16757;SDS011;8497;51.346;12.396;2024-02-26T23:09:22;27.17;;;17.47;;
16757;SDS011;8497;51.346;12.396;2024-02-26T23:11:52;25.57;;;16.70;;
16757;SDS011;8497;51.346;12.396;2024-02-26T23:14:21;26.40;;;17.40;;
16757;SDS011;8497;51.346;12.396;2024-02-26T23:16:52;25.33;;;17.23;;
16757;SDS011;8497;51.346;12.396;2024-02-26T23:19:24;25.67;;;16.50;;
16757;SDS011;8497;51.346;12.396;2024-02-26T23:21:57;24.90;;;16.23;;
16757;SDS011;8497;51.346;12.396;2024-02-26T23:24:29;27.23;;;16.27;;
16757;SDS011;8497;51.346;12.396;2024-02-26T23:26:58;25.03;;;16.50;;
16757;SDS011;8497;51.346;12.396;2024-02-26T23:29:28;27.20;;;17.57;;
16757;SDS011;8497;51.346;12.396;2024-02-26T23:31:57;25.63;;;16.90;;
16757;SDS011;8497;51.346;12.396;2024-02-26T23:34:26;27.13;;;17.47;;
16757;SDS011;8497;51.346;12.396;2024-02-26T23:36:55;29.13;;;17.27;;
16757;SDS011;8497;51.346;12.396;2024-02-26T23:39:23;24.20;;;16.27;;
16757;SDS011;8497;51.346;12.396;2024-02-26T23:41:52;28.43;;;16.93;;
16757;SDS011;8497;51.346;12.396;2024-02-26T23:44:21;25.20;;;17.10;;
16757;SDS011;8497;51.346;12.396;2024-02-26T23:46:49;25.70;;;15.87;;
16757;SDS011;8497;51.346;12.396;2024-02-26T23:49:19;30.93;;;17.90;;
16757;SDS011;8497;51.346;12.396;2024-02-26T23:51:48;25.17;;;16.30;;
16757;SDS011;8497;51.346;12.396;2024-02-26T23:54:16;25.20;;;15.60;;
16757;SDS011;8497;51.346;12.396;2024-02-26T23:56:45;25.57;;;15.80;;
16757;SDS011;8497;51.346;12.396;2024-02-26T23:59:14;26.63;;;17.63;;
